createdAt,value
2018-12-15T00:00:12.312Z,2.18
2018-12-15T00:02:46.384Z,1.68
2018-12-15T00:05:20.535Z,2.18
2018-12-15T00:07:54.442Z,2.38
2018-12-15T00:10:28.209Z,2.83
2018-12-15T00:13:02.225Z,2.92
2018-12-15T00:15:36.267Z,3.16
2018-12-15T00:18:10.173Z,2.68
2018-12-15T00:20:43.982Z,2.28
2018-12-15T00:23:17.886Z,2.79
2018-12-15T00:25:51.689Z,3.16
2018-12-15T00:28:25.368Z,3.24
2018-12-15T00:30:59.201Z,3.04
2018-12-15T00:33:33.263Z,2.70
2018-12-15T00:36:07.220Z,2.34
2018-12-15T00:38:41.327Z,2.70
2018-12-15T00:41:15.240Z,2.77
2018-12-15T00:43:49.349Z,2.88
2018-12-15T00:46:23.093Z,2.83
2018-12-15T00:48:56.917Z,2.71
2018-12-15T00:51:30.966Z,2.40
2018-12-15T00:54:04.883Z,2.20
2018-12-15T00:56:39.090Z,2.59
2018-12-15T00:59:13.098Z,2.66
2018-12-15T01:01:47.114Z,2.71
2018-12-15T01:04:21.326Z,2.87
2018-12-15T01:06:55.334Z,2.87
2018-12-15T01:09:29.444Z,2.71
2018-12-15T01:12:03.152Z,3.13
2018-12-15T01:14:37.159Z,3.20
2018-12-15T01:17:11.267Z,3.08
2018-12-15T01:19:45.278Z,2.89
2018-12-15T01:22:18.983Z,2.85
2018-12-15T01:24:52.685Z,2.31
2018-12-15T01:27:26.694Z,2.20
2018-12-15T01:30:00.599Z,2.02
2018-12-15T01:32:34.387Z,1.63
2018-12-15T01:35:08.332Z,1.75
2018-12-15T01:37:42.321Z,1.98
2018-12-15T01:40:16.337Z,2.32
2018-12-15T01:42:50.442Z,2.77
2018-12-15T01:45:24.350Z,2.39
2018-12-15T01:47:58.159Z,2.16
2018-12-15T01:50:32.164Z,2.35
2018-12-15T01:53:06.071Z,2.88
2018-12-15T01:55:39.863Z,2.88
2018-12-15T01:58:13.681Z,2.44
2018-12-15T02:00:47.488Z,2.74
2018-12-15T02:03:21.545Z,2.80
2018-12-15T02:05:55.709Z,3.13
2018-12-15T02:08:29.923Z,3.22
2018-12-15T02:11:03.937Z,3.22
2018-12-15T02:13:37.634Z,3.33
2018-12-15T02:16:11.747Z,3.27
2018-12-15T02:18:45.628Z,3.10
2018-12-15T02:21:19.664Z,2.97
2018-12-15T02:23:53.471Z,2.98
2018-12-15T02:26:27.276Z,2.91
2018-12-15T02:29:01.385Z,3.03
2018-12-15T02:31:35.136Z,2.93
2018-12-15T02:34:09.201Z,2.42
2018-12-15T02:36:43.112Z,2.59
2018-12-15T02:39:17.120Z,2.64
2018-12-15T02:41:50.812Z,2.93
2018-12-15T02:44:24.623Z,3.00
2018-12-15T02:46:58.430Z,3.16
2018-12-15T02:49:32.337Z,3.41
2018-12-15T02:52:06.325Z,3.39
2018-12-15T02:54:40.355Z,3.26
2018-12-15T02:57:14.366Z,2.59
2018-12-15T02:59:48.373Z,3.03
2018-12-15T03:02:22.383Z,3.20
2018-12-15T03:04:56.395Z,3.16
2018-12-15T03:07:30.197Z,3.12
2018-12-15T03:10:05.851Z,3.18
2018-12-15T03:12:39.764Z,3.24
2018-12-15T03:15:13.561Z,3.40
2018-12-15T03:17:49.028Z,3.32
2018-12-15T03:20:23.082Z,3.49
2018-12-15T03:22:57.123Z,3.52
2018-12-15T03:25:31.000Z,3.46
2018-12-15T03:28:05.146Z,3.30
2018-12-15T03:30:39.152Z,3.51
2018-12-15T03:33:12.969Z,3.59
2018-12-15T03:35:47.681Z,3.53
2018-12-15T03:38:21.795Z,3.64
2018-12-15T03:40:55.679Z,3.67
2018-12-15T03:43:29.814Z,3.33
2018-12-15T03:46:03.824Z,3.23
2018-12-15T03:48:37.732Z,3.44
2018-12-15T03:51:11.525Z,3.52
2018-12-15T03:53:45.491Z,3.53
2018-12-15T03:56:19.553Z,3.67
2018-12-15T03:58:53.261Z,3.64
2018-12-15T04:01:27.369Z,3.66
2018-12-15T04:04:01.068Z,3.55
2018-12-15T04:06:35.192Z,3.35
2018-12-15T04:09:08.835Z,3.24
2018-12-15T04:11:42.600Z,3.40
2018-12-15T04:14:16.597Z,3.64
2018-12-15T04:16:50.404Z,3.10
2018-12-15T04:19:24.514Z,3.10
2018-12-15T04:22:20.752Z,3.30
2018-12-15T04:24:54.549Z,3.37
2018-12-15T04:27:28.415Z,3.41
2018-12-15T04:30:02.465Z,3.39
2018-12-15T04:32:36.372Z,3.08
2018-12-15T04:35:10.280Z,3.11
2018-12-15T04:37:44.086Z,3.18
2018-12-15T04:40:18.151Z,2.90
2018-12-15T04:42:52.210Z,2.74
2018-12-15T04:45:26.062Z,3.17
2018-12-15T04:48:00.102Z,2.99
2018-12-15T04:50:34.220Z,2.69
2018-12-15T04:53:08.216Z,2.39
2018-12-15T04:55:43.072Z,2.54
2018-12-15T04:58:16.789Z,2.49
2018-12-15T05:00:50.786Z,2.50
2018-12-15T05:03:24.656Z,2.79
2018-12-15T05:05:58.707Z,2.33
2018-12-15T05:08:32.506Z,2.41
2018-12-15T05:11:06.518Z,2.75
2018-12-15T05:13:40.321Z,3.12
2018-12-15T05:16:14.023Z,3.08
2018-12-15T05:18:47.849Z,3.00
2018-12-15T05:21:21.837Z,3.03
2018-12-15T05:23:55.595Z,3.05
2018-12-15T05:26:29.652Z,3.05
2018-12-15T05:29:03.456Z,3.23
2018-12-15T05:31:37.470Z,3.51
2018-12-15T05:34:11.475Z,3.48
2018-12-15T05:36:45.332Z,3.41
2018-12-15T05:39:19.255Z,3.21
2018-12-15T05:41:53.266Z,3.10
2018-12-15T05:44:27.210Z,3.01
2018-12-15T05:47:02.138Z,2.71
2018-12-15T05:49:36.057Z,2.85
2018-12-15T05:52:09.850Z,3.08
2018-12-15T05:54:43.655Z,3.08
2018-12-15T05:57:17.357Z,3.15
2018-12-15T05:59:51.367Z,3.41
2018-12-15T06:02:25.684Z,3.60
2018-12-15T06:04:59.796Z,3.59
2018-12-15T06:07:33.704Z,3.47
2018-12-15T06:10:07.921Z,3.37
2018-12-15T06:12:41.825Z,3.10
2018-12-15T06:15:15.630Z,2.39
2018-12-15T06:17:49.434Z,2.78
2018-12-15T06:20:23.343Z,2.46
2018-12-15T06:22:57.452Z,2.43
2018-12-15T06:25:31.465Z,2.34
2018-12-15T06:28:05.370Z,2.26
2018-12-15T06:30:39.277Z,2.18
2018-12-15T06:33:13.166Z,2.03
2018-12-15T06:35:47.402Z,1.40
2018-12-15T06:38:21.305Z,1.86
2018-12-15T06:40:55.215Z,2.28
2018-12-15T06:43:29.125Z,2.30
2018-12-15T06:46:03.327Z,2.34
2018-12-15T06:48:38.223Z,2.75
2018-12-15T06:51:12.301Z,2.77
2018-12-15T06:53:46.063Z,3.04
2018-12-15T06:56:22.018Z,3.10
2018-12-15T06:58:56.065Z,3.22
2018-12-15T07:01:30.054Z,3.27
2018-12-15T07:04:03.966Z,3.41
2018-12-15T07:06:37.970Z,3.54
2018-12-15T07:09:12.042Z,3.54
2018-12-15T07:11:45.784Z,3.58
2018-12-15T07:14:19.794Z,3.40
2018-12-15T07:16:53.698Z,3.04
2018-12-15T07:19:27.821Z,3.20
2018-12-15T07:22:01.829Z,3.17
2018-12-15T07:24:35.730Z,2.97
2018-12-15T07:27:09.637Z,3.08
2018-12-15T07:29:43.544Z,3.00
2018-12-15T07:32:17.553Z,2.99
2018-12-15T07:34:51.563Z,2.63
2018-12-15T07:37:25.420Z,2.78
2018-12-15T07:39:59.586Z,2.71
2018-12-15T07:42:33.388Z,2.83
2018-12-15T07:45:07.502Z,2.86
2018-12-15T07:47:41.364Z,2.73
2018-12-15T07:50:15.619Z,2.76
2018-12-15T07:52:49.372Z,2.78
2018-12-15T07:55:23.435Z,2.85
2018-12-15T07:57:57.445Z,2.98
2018-12-15T08:00:31.352Z,3.05
2018-12-15T08:03:05.264Z,2.95
2018-12-15T08:05:39.268Z,2.84
2018-12-15T08:08:13.175Z,2.70
2018-12-15T08:10:52.817Z,2.82
2018-12-15T08:13:28.677Z,2.94
2018-12-15T08:16:02.579Z,2.65
2018-12-15T08:18:36.280Z,2.41
2018-12-15T08:21:10.190Z,2.35
2018-12-15T08:23:44.156Z,2.49
2018-12-15T08:26:18.207Z,2.55
2018-12-15T08:28:52.169Z,2.42
2018-12-15T08:31:26.310Z,2.60
2018-12-15T08:34:00.199Z,2.75
2018-12-15T08:36:34.244Z,2.79
2018-12-15T08:39:08.050Z,2.67
2018-12-15T08:41:41.954Z,2.53
2018-12-15T08:44:15.760Z,2.52
2018-12-15T08:46:49.424Z,2.67
2018-12-15T08:49:23.475Z,2.59
2018-12-15T08:51:57.380Z,2.45
2018-12-15T08:54:31.389Z,2.34
2018-12-15T08:57:05.398Z,2.37
2018-12-15T08:59:39.104Z,2.27
2018-12-15T09:02:12.905Z,2.60
2018-12-15T09:04:46.882Z,2.74
2018-12-15T09:07:21.029Z,2.85
2018-12-15T09:09:54.729Z,2.81
2018-12-15T09:12:28.846Z,2.60
2018-12-15T09:15:02.954Z,2.86
2018-12-15T09:17:37.064Z,3.13
2018-12-15T09:20:10.768Z,3.00
2018-12-15T09:22:44.953Z,3.05
2018-12-15T09:25:18.889Z,3.21
2018-12-15T09:27:52.777Z,3.25
2018-12-15T09:30:26.703Z,3.37
2018-12-15T09:33:00.714Z,3.15
2018-12-15T09:35:34.517Z,3.15
2018-12-15T09:38:08.424Z,3.25
2018-12-15T09:40:42.333Z,3.27
2018-12-15T09:43:16.340Z,3.42
2018-12-15T09:45:50.317Z,3.52
2018-12-15T09:48:24.360Z,3.40
2018-12-15T09:50:58.169Z,3.35
2018-12-15T09:53:32.174Z,3.37
2018-12-15T09:56:06.153Z,3.53
2018-12-15T09:58:40.193Z,3.57
2018-12-15T10:01:14.407Z,3.54
2018-12-15T10:03:48.417Z,3.20
2018-12-15T10:06:22.372Z,3.22
2018-12-15T10:08:56.437Z,3.33
2018-12-15T10:11:30.142Z,3.37
2018-12-15T10:14:04.253Z,3.57
2018-12-15T10:16:38.263Z,3.41
2018-12-15T10:19:12.171Z,3.44
2018-12-15T10:21:46.026Z,3.54
2018-12-15T10:24:20.085Z,3.54
2018-12-15T10:26:55.213Z,3.44
2018-12-15T10:29:34.733Z,3.44
2018-12-15T10:32:14.299Z,3.31
2018-12-15T10:34:48.414Z,3.35
2018-12-15T10:37:22.279Z,3.19
2018-12-15T10:39:56.428Z,2.98
2018-12-15T10:42:30.646Z,3.02
2018-12-15T10:45:05.274Z,2.94
2018-12-15T10:47:39.224Z,3.10
2018-12-15T10:50:13.184Z,3.15
2018-12-15T10:52:47.092Z,3.34
2018-12-15T10:55:20.999Z,3.14
2018-12-15T10:57:54.803Z,3.16
2018-12-15T11:00:34.240Z,3.00
2018-12-15T11:03:08.147Z,2.79
2018-12-15T11:05:42.054Z,3.04
2018-12-15T11:08:15.938Z,3.38
2018-12-15T11:10:50.074Z,3.53
2018-12-15T11:13:23.822Z,3.40
2018-12-15T11:15:57.889Z,3.33
2018-12-15T11:18:31.757Z,3.34
2018-12-15T11:21:05.907Z,3.32
2018-12-15T11:23:40.122Z,3.44
2018-12-15T11:26:14.234Z,3.06
2018-12-15T11:28:48.141Z,3.00
2018-12-15T11:31:21.946Z,3.08
2018-12-15T11:33:56.671Z,3.18
2018-12-15T11:36:30.681Z,3.40
2018-12-15T11:39:06.772Z,3.27
2018-12-15T11:41:40.646Z,3.21
2018-12-15T11:44:14.554Z,3.19
2018-12-15T11:46:48.422Z,3.57
2018-12-15T11:49:22.718Z,3.69
2018-12-15T11:51:56.685Z,3.83
2018-12-15T11:54:30.618Z,3.68
2018-12-15T11:57:04.612Z,3.55
2018-12-15T11:59:38.662Z,3.41
2018-12-15T12:02:12.521Z,3.57
2018-12-15T12:04:46.630Z,3.66
2018-12-15T12:07:20.435Z,3.41
2018-12-15T12:09:54.445Z,2.94
2018-12-15T12:12:28.237Z,3.37
2018-12-15T12:15:02.259Z,3.38
2018-12-15T12:17:36.031Z,3.44
2018-12-15T12:20:10.176Z,3.29
2018-12-15T12:22:44.288Z,3.18
2018-12-15T12:25:18.195Z,3.39
2018-12-15T12:27:52.102Z,3.12
2018-12-15T12:30:26.935Z,3.34
2018-12-15T12:33:00.837Z,3.35
2018-12-15T12:35:34.951Z,3.27
2018-12-15T12:38:09.163Z,3.56
2018-12-15T12:40:43.073Z,3.85
2018-12-15T12:43:17.084Z,3.54
2018-12-15T12:45:51.095Z,3.35
2018-12-15T12:48:24.840Z,3.32
2018-12-15T12:50:58.802Z,3.04
2018-12-15T12:53:32.612Z,2.92
2018-12-15T12:56:06.618Z,3.42
2018-12-15T12:58:40.421Z,3.28
2018-12-15T13:01:14.431Z,3.39
2018-12-15T13:03:48.440Z,3.51
2018-12-15T13:06:22.616Z,2.99
2018-12-15T13:08:56.772Z,3.11
2018-12-15T13:11:30.783Z,3.33
2018-12-15T13:14:04.636Z,3.38
2018-12-15T13:16:38.779Z,3.06
2018-12-15T13:19:12.809Z,3.03
2018-12-15T13:21:46.915Z,3.24
2018-12-15T13:24:20.941Z,3.21
2018-12-15T13:26:59.210Z,3.05
2018-12-15T13:29:31.198Z,2.51
2018-12-15T13:32:06.129Z,2.14
2018-12-15T13:34:39.938Z,1.61
2018-12-15T13:37:13.944Z,2.16
2018-12-15T13:39:47.748Z,2.31
2018-12-15T13:42:21.656Z,1.78
2018-12-15T13:44:55.619Z,1.43
2018-12-15T13:47:29.678Z,1.49
2018-12-15T13:50:10.138Z,1.65
2018-12-15T13:52:41.498Z,1.28
2018-12-15T13:55:15.493Z,1.68
2018-12-15T13:57:49.399Z,1.85
2018-12-15T14:00:23.203Z,1.71
2018-12-15T14:02:57.114Z,1.71
2018-12-15T14:05:31.223Z,1.83
2018-12-15T14:08:05.074Z,2.34
2018-12-15T14:10:39.140Z,2.21
2018-12-15T14:13:12.880Z,1.64
2018-12-15T14:15:47.350Z,1.54
2018-12-15T14:18:21.319Z,1.53
2018-12-15T14:20:55.284Z,1.87
2018-12-15T14:23:29.289Z,1.32
2018-12-15T14:26:04.836Z,1.11
2018-12-15T14:28:38.640Z,0.60
2018-12-15T14:31:13.366Z,0.89
2018-12-15T14:33:47.543Z,1.64
2018-12-15T14:36:21.898Z,1.70
2018-12-15T14:38:55.705Z,1.60
2018-12-15T14:41:29.609Z,1.74
2018-12-15T14:44:03.337Z,1.62
2018-12-15T14:46:37.323Z,1.13
2018-12-15T14:49:11.127Z,0.65
2018-12-15T14:51:45.092Z,0.77
2018-12-15T14:54:19.248Z,1.20
2018-12-15T14:56:53.257Z,1.33
2018-12-15T14:59:27.166Z,1.67
2018-12-15T15:02:01.688Z,1.84
2018-12-15T15:04:35.593Z,1.48
2018-12-15T15:07:09.499Z,1.72
2018-12-15T15:09:43.410Z,2.23
2018-12-15T15:12:17.228Z,2.16
2018-12-15T15:14:51.223Z,1.85
2018-12-15T15:17:25.233Z,1.34
2018-12-15T15:19:59.138Z,1.20
2018-12-15T15:22:32.944Z,1.34
2018-12-15T15:25:07.060Z,1.39
2018-12-15T15:27:40.700Z,1.46
2018-12-15T15:30:15.549Z,1.68
2018-12-15T15:32:49.321Z,2.37
2018-12-15T15:35:23.400Z,2.28
2018-12-15T15:37:57.409Z,2.60
2018-12-15T15:40:31.317Z,2.39
2018-12-15T15:43:05.224Z,2.75
2018-12-15T15:45:39.336Z,2.58
2018-12-15T15:48:13.450Z,2.55
2018-12-15T15:50:47.188Z,2.09
2018-12-15T15:53:20.833Z,2.49
2018-12-15T15:55:54.765Z,2.94
2018-12-15T15:58:28.973Z,3.06
2018-12-15T16:01:02.782Z,2.91
2018-12-15T16:03:36.788Z,2.45
2018-12-15T16:06:10.798Z,2.16
2018-12-15T16:08:44.807Z,1.69
2018-12-15T16:11:18.575Z,1.70
2018-12-15T16:13:52.726Z,1.98
2018-12-15T16:16:32.997Z,2.20
2018-12-15T16:19:06.813Z,2.44
2018-12-15T16:21:40.897Z,2.07
2018-12-15T16:24:15.008Z,2.00
2018-12-15T16:26:48.813Z,1.34
2018-12-15T16:29:22.799Z,1.56
2018-12-15T16:31:56.832Z,0.98
2018-12-15T16:34:30.843Z,1.23
2018-12-15T16:37:04.852Z,1.34
2018-12-15T16:39:38.665Z,1.00
2018-12-15T16:42:12.879Z,1.17
2018-12-15T16:44:46.983Z,1.40
2018-12-15T16:47:20.740Z,1.41
2018-12-15T16:49:54.575Z,1.37
2018-12-15T16:52:29.429Z,1.75
2018-12-15T16:55:04.660Z,1.77
2018-12-15T16:57:38.571Z,1.85
2018-12-15T17:00:13.151Z,2.05
2018-12-15T17:02:47.202Z,1.85
2018-12-15T17:05:21.211Z,2.01
2018-12-15T17:07:55.116Z,1.74
2018-12-15T17:10:28.822Z,1.70
2018-12-15T17:13:02.829Z,1.83
2018-12-15T17:15:36.736Z,2.14
2018-12-15T17:18:10.606Z,2.41
2018-12-15T17:20:44.758Z,2.44
2018-12-15T17:23:18.635Z,2.53
2018-12-15T17:25:52.774Z,2.62
2018-12-15T17:28:26.644Z,2.32
2018-12-15T17:31:00.895Z,2.49
2018-12-15T17:33:34.705Z,2.30
2018-12-15T17:36:08.711Z,1.63
2018-12-15T17:38:42.515Z,2.20
2018-12-15T17:41:16.627Z,2.62
2018-12-15T17:43:50.432Z,2.13
2018-12-15T17:46:24.543Z,1.74
2018-12-15T17:48:58.554Z,1.72
2018-12-15T17:51:32.562Z,1.94
2018-12-15T17:54:06.470Z,1.99
2018-12-15T17:56:40.377Z,1.90
2018-12-15T17:59:14.284Z,1.58
2018-12-15T18:01:48.191Z,1.71
2018-12-15T18:04:22.202Z,1.75
2018-12-15T18:06:56.108Z,2.18
2018-12-15T18:09:30.016Z,2.27
2018-12-15T18:12:04.029Z,2.26
2018-12-15T18:14:37.932Z,2.32
2018-12-15T18:17:11.839Z,2.31
2018-12-15T18:19:45.645Z,2.61
2018-12-15T18:22:19.552Z,2.75
2018-12-15T18:24:53.562Z,2.88
2018-12-15T18:27:27.514Z,2.83
2018-12-15T18:30:01.580Z,2.89
2018-12-15T18:32:35.694Z,2.85
2018-12-15T18:35:09.602Z,2.90
2018-12-15T18:37:43.459Z,2.89
2018-12-15T18:40:17.516Z,2.78
2018-12-15T18:42:51.321Z,2.62
2018-12-15T18:45:25.272Z,2.84
2018-12-15T18:47:59.242Z,3.00
2018-12-15T18:50:33.247Z,2.91
2018-12-15T18:53:06.948Z,2.80
2018-12-15T18:55:40.860Z,2.86
2018-12-15T18:58:14.667Z,2.79
2018-12-15T19:00:48.466Z,2.84
2018-12-15T19:03:23.214Z,2.71
2018-12-15T19:05:57.276Z,2.84
2018-12-15T19:08:31.314Z,2.93
2018-12-15T19:11:05.324Z,2.92
2018-12-15T19:13:39.202Z,3.02
2018-12-15T19:16:13.240Z,2.99
2018-12-15T19:18:46.944Z,2.98
2018-12-15T19:21:23.067Z,2.99
2018-12-15T19:23:57.113Z,2.71
2018-12-15T19:26:31.838Z,2.64
2018-12-15T19:29:05.747Z,2.93
2018-12-15T19:31:39.652Z,2.90
2018-12-15T19:34:17.436Z,3.18
2018-12-15T19:36:49.720Z,3.13
2018-12-15T19:39:23.730Z,2.77
2018-12-15T19:41:57.535Z,2.62
2018-12-15T19:44:31.445Z,2.83
2018-12-15T19:47:05.352Z,3.14
2018-12-15T19:49:39.217Z,3.07
2018-12-15T19:52:13.265Z,3.03
2018-12-15T19:54:47.026Z,3.08
2018-12-15T19:57:21.187Z,3.08
2018-12-15T19:59:54.985Z,2.91
2018-12-15T20:02:28.791Z,2.75
2018-12-15T20:05:02.596Z,2.95
2018-12-15T20:07:36.502Z,2.97
2018-12-15T20:10:10.255Z,3.19
2018-12-15T20:12:44.317Z,3.20
2018-12-15T20:15:18.290Z,3.10
2018-12-15T20:17:52.439Z,2.82
2018-12-15T20:20:26.071Z,2.69
2018-12-15T20:22:59.946Z,2.53
2018-12-15T20:25:33.853Z,2.49
2018-12-15T20:28:07.657Z,2.35
2018-12-15T20:30:41.769Z,2.68
2018-12-15T20:33:15.638Z,2.80
2018-12-15T20:35:49.687Z,2.97
2018-12-15T20:38:23.594Z,2.96
2018-12-15T20:40:57.499Z,2.94
2018-12-15T20:43:31.407Z,2.86
2018-12-15T20:46:05.213Z,3.01
2018-12-15T20:48:39.018Z,3.06
2018-12-15T20:51:12.812Z,2.85
2018-12-15T20:53:46.732Z,2.71
2018-12-15T20:56:20.738Z,2.78
2018-12-15T20:58:54.510Z,2.83
2018-12-15T21:01:28.603Z,2.96
2018-12-15T21:04:02.563Z,2.93
2018-12-15T21:06:36.469Z,2.81
2018-12-15T21:09:10.275Z,2.58
2018-12-15T21:11:44.079Z,2.62
2018-12-15T21:14:17.887Z,2.95
2018-12-15T21:16:51.619Z,2.62
2018-12-15T21:19:25.502Z,2.46
2018-12-15T21:21:59.412Z,2.66
2018-12-15T21:24:33.206Z,2.88
2018-12-15T21:27:07.216Z,2.98
2018-12-15T21:29:41.439Z,2.97
2018-12-15T21:32:15.336Z,2.58
2018-12-15T21:34:49.259Z,2.75
2018-12-15T21:37:23.355Z,2.85
2018-12-15T21:39:57.058Z,2.83
2018-12-15T21:42:31.750Z,2.18
2018-12-15T21:45:06.203Z,1.84
2018-12-15T21:47:41.753Z,1.77
2018-12-15T21:50:15.760Z,1.61
2018-12-15T21:52:49.671Z,1.67
2018-12-15T21:55:23.471Z,1.35
2018-12-15T21:57:57.584Z,1.38
2018-12-15T22:00:31.387Z,1.79
2018-12-15T22:03:05.295Z,2.21
2018-12-15T22:05:39.307Z,2.46
2018-12-15T22:08:13.077Z,2.36
2018-12-15T22:10:47.021Z,2.27
2018-12-15T22:13:21.765Z,2.10
2018-12-15T22:15:55.803Z,2.16
2018-12-15T22:18:29.821Z,1.88
2018-12-15T22:21:03.873Z,2.22
2018-12-15T22:23:37.884Z,2.46
2018-12-15T22:26:11.900Z,2.60
2018-12-15T22:28:45.803Z,2.31
2018-12-15T22:31:19.812Z,2.42
2018-12-15T22:33:53.637Z,2.05
2018-12-15T22:36:27.635Z,2.29
2018-12-15T22:39:01.326Z,2.27
2018-12-15T22:41:35.337Z,2.50
2018-12-15T22:44:09.242Z,2.37
2018-12-15T22:46:43.253Z,2.22
2018-12-15T22:49:17.261Z,2.32
2018-12-15T22:51:51.219Z,2.25
2018-12-15T22:54:25.244Z,2.26
2018-12-15T22:57:00.626Z,2.35
2018-12-15T22:59:34.624Z,2.24
2018-12-15T23:02:08.742Z,2.20
2018-12-15T23:04:42.531Z,2.19
2018-12-15T23:07:16.659Z,2.25
2018-12-15T23:09:50.566Z,2.31
2018-12-15T23:12:24.580Z,2.25
2018-12-15T23:14:58.483Z,2.19
2018-12-15T23:17:32.389Z,2.28
2018-12-15T23:20:06.707Z,2.24
2018-12-15T23:22:40.495Z,2.09
2018-12-15T23:25:14.432Z,1.85
2018-12-15T23:27:48.325Z,2.05
2018-12-15T23:30:22.437Z,2.42
2018-12-15T23:32:56.509Z,2.52
2018-12-15T23:35:30.354Z,2.45
2018-12-15T23:38:04.365Z,2.49
2018-12-15T23:40:38.122Z,2.26
2018-12-15T23:43:12.178Z,2.36
2018-12-15T23:45:46.187Z,2.49
2018-12-15T23:48:20.048Z,2.38
2018-12-15T23:50:54.003Z,2.24
2018-12-15T23:53:28.114Z,2.17
2018-12-15T23:56:02.022Z,2.31
2018-12-15T23:58:36.136Z,2.23
